^^

Meteo Aereoporti Centro-Italia

 

 
LIRZ - Perugia S.Egidio (208 m.)
Dati ricevuti: 19/02/2017 22:50
Dati non aggiornati
Sereno
Sereno
 Vento da N
Vento: N 15 km/h
TEMPERATURA: 2°C
Raffreddamento da Vento: -2°C
P.to di Rugiada: 0°C
Umidità: 87%
Pressione: 1023 hPa
Condizioni generali: Sereno
Visibilità: oltre 10 km
2017/02/19 21:50 LIRZ 192150Z 01008KT CAVOK 02/00 Q1023
 
LIPY - Ancona Falconara (12 m.)
Dati ricevuti: 20/02/2017 03:50
Sereno
Sereno
 Vento da SSE
Vento: SSE 6 km/h
TEMPERATURA: 1°C
P.to di Rugiada: 0°C
Umidità: 93%
Pressione: 1023 hPa
Condizioni generali: Sereno
Visibilità: oltre 10 km
2017/02/20 02:50 LIPY 200250Z 16003KT CAVOK 01/00 Q1023
 
LIPR - Rimini Miramare (12 m.)
Dati ricevuti: 20/02/2017 04:15
Sereno
Sereno
 Vento da calm
Vento: Calma
TEMPERATURA: 4°C
P.to di Rugiada: 3°C
Umidità: 93%
Pressione: 1022 hPa
Condizioni generali: Sereno
Visibilità: oltre 10 km
2017/02/20 03:15 LIPR 200315Z 00000KT CAVOK 04/03 Q1022
 
LIRF - Roma Fiumicino (2 m.)
Dati ricevuti: 20/02/2017 04:20
Sereno
Sereno
 Vento da NW
Vento: NW 6 km/h
TEMPERATURA: 2°C
P.to di Rugiada: 1°C
Umidità: 93%
Pressione: 1023 hPa
Condizioni generali: Sereno
Visibilità: oltre 10 km
2017/02/20 03:20 LIRF 200320Z 31003KT CAVOK 02/01 Q1023 NOSIG
 
LIRA - Roma Ciampino (129 m.)
Dati ricevuti: 20/02/2017 04:20
Sereno
Sereno
 Vento da NE
Vento: NE 7 km/h
TEMPERATURA: 3°C
Raffreddamento da Vento: 1°C
P.to di Rugiada: 0°C
Umidità: 81%
Pressione: 1022 hPa
Condizioni generali: Sereno
Visibilità: oltre 10 km
2017/02/20 03:20 LIRA 200320Z 05004KT CAVOK 03/M00 Q1022
 
LIRU - Roma Urbe (17 m.)
Dati ricevuti: 19/02/2017 16:50
Dati non aggiornati
Sereno
Sereno
 Vento da W
Vento: W 17 km/h
TEMPERATURA: 12°C
P.to di Rugiada: 4°C
Umidità: 58%
Pressione: 1022 hPa
Condizioni generali: Sereno
Visibilità: oltre 10 km
2017/02/19 15:50 LIRU 191550Z 26009KT CAVOK 12/04 Q1022
 
LIVF - Frontone (570 m.)
Dati ricevuti: 19/02/2017 12:55
Dati non aggiornati
Qualche nuvola
Qualche nuvola
 Vento da ENE
Vento: ENE 7 km/h
TEMPERATURA: 7°C
Raffreddamento da Vento: 6°C
P.to di Rugiada: -1°C
Umidità: 57%
Pressione: 1023 hPa
Nuvole: Qualche nuvola
Visibilità: 10 km
Dettagli Nuvole: Qualche nuvola 914 m
2017/02/19 11:55 LIVF 191155Z 06004KT 9999 FEW030 07/M01 Q1023
 
LIRQ - Firenze Peretola (40 m.)
Dati ricevuti: 20/02/2017 04:20
Qualche nuvola
Qualche nuvola
 Vento da direzione variabile
Vento: direzione variabile 2 km/h
TEMPERATURA: 1°C
P.to di Rugiada: 0°C
Umidità: 93%
Pressione: 1023 hPa
Nuvole: Qualche nuvola
Visibilità: 10 km
Dettagli Nuvole: Qualche nuvola 2134 m
2017/02/20 03:20 LIRQ 200320Z VRB01KT 9999 FEW070 01/00 Q1023
 
LIBP - Pescara (10 m.)
Dati ricevuti: 20/02/2017 03:50
Sereno
Sereno
 Vento da SSW
Vento: SSW 11 km/h
TEMPERATURA: 0°C
Raffreddamento da Vento: -4°C
P.to di Rugiada: -1°C
Umidità: 93%
Pressione: 1023 hPa
Nuvole: Sereno
Visibilità: 10 km
2017/02/20 02:50 LIBP 200250Z AUTO 20006KT 9999 NCD M00/M01 Q1023
 
LIRV - Viterbo (300 m.)
Dati ricevuti: 19/02/2017 18:55
Dati non aggiornati
Sereno
Sereno
 Vento da NNE
Vento: NNE 7 km/h
TEMPERATURA: 8°C
Raffreddamento da Vento: 7°C
P.to di Rugiada: -2°C
Umidità: 50%
Pressione: 1022 hPa
Condizioni generali: Sereno
Visibilità: oltre 10 km
2017/02/19 17:55 LIRV 191755Z 03004KT CAVOK 08/M02 Q1022
 
LIQN - Rieti (389 m.)
Dati ricevuti: 19/02/2017 17:50
Dati non aggiornati
Sereno
Sereno
 Vento da WNW
Vento: WNW 7 km/h
TEMPERATURA: 9°C
Raffreddamento da Vento: 8°C
P.to di Rugiada: 0°C
Umidità: 54%
Pressione: 1020 hPa
Condizioni generali: Sereno
Visibilità: oltre 10 km
2017/02/19 16:50 LIQN 191650Z 30004KT CAVOK 09/00 Q1020
 
LIRG - Guidonia -RM- (88 m.)
Dati ricevuti: 17/02/2017 18:55
Dati non aggiornati
Poco nuvoloso
Poco nuvoloso
 Vento da S
Vento: S 6 km/h
TEMPERATURA: 11°C
P.to di Rugiada: 8°C
Umidità: 82%
Pressione: 1024 hPa
Nuvole: Poco nuvoloso
Visibilità: 10 km
Dettagli Nuvole: Poco nuvoloso 1067 m
2017/02/17 17:55 LIRG 171755Z 17003KT 9999 SCT035 11/08 Q1024
 
LIRK - Terminillo -RI-(1874 m.)
Dati ricevuti: 20/02/2017 03:55

 Vento da NNW
Vento: NNW 15 km/h
TEMPERATURA: -4°C
Raffreddamento da Vento: -9°C
P.to di Rugiada: -10°C
Umidità: 63%
Pressione: 1019 hPa
2017/02/20 02:55 LIRK 200255Z AUTO 33008KT //// M04/M10 Q1019
 
LIPK - Forlì (27 m.)
Dati ricevuti: 17/02/2017 17:50
Dati non aggiornati
Qualche nuvola
Qualche nuvola
 Vento da direzione variabile
Vento: direzione variabile 6 km/h
TEMPERATURA: 13°C
P.to di Rugiada: 3°C
Umidità: 51%
Pressione: 1020 hPa
Nuvole: Qualche nuvola
Visibilità: 10 km
Dettagli Nuvole: Qualche nuvola 1219 m
2017/02/17 16:50 LIPK 171650Z VRB03KT 9999 FEW040 13/03 Q1020
 
LIRS - Grosseto (5 m.)
Dati ricevuti: 20/02/2017 03:55
Sereno
Sereno
 Vento da NE
Vento: NE 11 km/h
TEMPERATURA: 3°C
Raffreddamento da Vento: 0°C
P.to di Rugiada: 2°C
Umidità: 93%
Pressione: 1023 hPa
Condizioni generali: Sereno
Visibilità: oltre 10 km
2017/02/20 02:55 LIRS 200255Z 05006KT CAVOK 03/02 Q1023
 
LIRP - Pisa S.Giusto (2 m.)
Dati ricevuti: 20/02/2017 04:15
Molto nuvoloso
Molto nuvoloso
 Vento da SE
Vento: SE 9 km/h
TEMPERATURA: 5°C
Raffreddamento da Vento: 3°C
P.to di Rugiada: 4°C
Umidità: 93%
Pressione: 1023 hPa
Nuvole: Molto nuvoloso
Visibilità: 10 km
Dettagli Nuvole: Qualche nuvola 914 m
Molto nuvoloso 1219 m
2017/02/20 03:15 LIRP 200315Z 14005KT 9999 FEW030 BKN040 05/04 Q1023 NOSIG